メインページ
METAR-TAF:

METAR-TAF

空港 :

岡山空港

岡山, 日本

緯度: 34-45N, 経度: 133-51E, 海抜: 241m

現時点の気象観測

当レポートは44分前の08:00(UTC)に作成
南東の風 6kt、からの間で変化する
気温 29°C
湿度 62%
気圧 1008 hPa
視程10km以上
高度3000ftの雲はほとんどない
高度6000ftの千切れ雲あり
千切れ雲あり

METAR: RJOB 200800Z 13006KT 090V170 9999 FEW030 BKN060 BKN/// 29/21 Q1008

時間: 17:44 (08:44 UTC)

予報

当レポートは3時間33分前の05:11(UTC)に作成
予報は20日の 06時(UTC)から 21日の 12時(UTC)まで有効
北東の風 6kt
視程10km以上
高度1500ftの雲はほとんどない
高度2500ftの雲は散在している
20日の 18時(UTC)から 21日の 00時(UTC)まで一時的に
高度100ftの雲はほとんどない
高度900ftの千切れ雲あり
高度1500ftの千切れ雲あり
21日の 00時(UTC)から 21日の 03時(UTC)まで徐々に
東/南東の風 12kt

TAF: RJOB 200511Z 2006/2112 04006KT 9999 FEW015 SCT025 TEMPO 2018/2100 FEW001 BKN009 BKN015 BECMG 2100/2103 12012KT

4,000以上の空港の気象観測と天気予報(METAR報とTAF報)

利用可能な観測所は地図上に黄色い丸と赤い丸で示す。

丸の上にカーソルを重ねると観測所名を参照できる。

次にクリックすると気象観測と天気予報を参照できる。

マップの切り替え:黒色「×」印の緑ボタンをクリックして拡大、「-」印の緑ボタンをクリックして縮小、緑色の三角印をクリックして隣りの地図に切り替え


METAR-TAF: